createdAt,value
2018-07-03T00:01:19.432Z,25.30
2018-07-03T00:03:47.119Z,25.30
2018-07-03T00:06:14.835Z,25.30
2018-07-03T00:08:42.554Z,25.30
2018-07-03T00:11:10.267Z,25.20
2018-07-03T00:13:37.988Z,25.20
2018-07-03T00:16:05.686Z,25.20
2018-07-03T00:18:33.400Z,25.20
2018-07-03T00:21:01.135Z,25.20
2018-07-03T00:23:28.983Z,25.20
2018-07-03T00:25:56.667Z,25.20
2018-07-03T00:28:24.484Z,25.20
2018-07-03T00:30:52.174Z,25.10
2018-07-03T00:33:19.993Z,25.10
2018-07-03T00:35:47.712Z,25.10
2018-07-03T00:38:15.573Z,25.10
2018-07-03T00:40:43.276Z,25.10
2018-07-03T00:43:11.017Z,25.10
2018-07-03T00:45:38.739Z,25.10
2018-07-03T00:48:06.435Z,25.10
2018-07-03T00:50:34.135Z,25.00
2018-07-03T00:53:01.822Z,25.10
2018-07-03T00:55:29.598Z,25.10
2018-07-03T00:57:57.325Z,25.00
2018-07-03T01:00:31.024Z,25.00
2018-07-03T01:05:26.585Z,25.00
2018-07-03T01:07:54.443Z,25.00
2018-07-03T01:10:22.147Z,24.90
2018-07-03T01:12:49.891Z,24.90
2018-07-03T01:15:17.592Z,24.90
2018-07-03T01:17:45.285Z,24.90
2018-07-03T01:20:13.052Z,24.90
2018-07-03T01:22:40.765Z,24.80
2018-07-03T01:25:08.571Z,24.80
2018-07-03T01:27:36.285Z,24.90
2018-07-03T01:30:04.102Z,24.80
2018-07-03T01:32:31.793Z,24.80
2018-07-03T01:34:59.487Z,24.80
2018-07-03T01:37:27.254Z,24.80
2018-07-03T01:39:54.953Z,24.80
2018-07-03T01:42:22.635Z,24.80
2018-07-03T01:44:50.363Z,24.80
2018-07-03T01:47:18.130Z,24.70
2018-07-03T01:49:45.861Z,24.70
2018-07-03T01:52:13.543Z,24.70
2018-07-03T01:54:41.269Z,24.70
2018-07-03T01:57:08.983Z,24.70
2018-07-03T01:59:36.728Z,24.70
2018-07-03T02:02:04.459Z,24.60
2018-07-03T02:04:32.158Z,24.60
2018-07-03T02:06:59.879Z,24.60
2018-07-03T02:09:27.611Z,24.60
2018-07-03T02:11:55.311Z,24.60
2018-07-03T02:14:23.012Z,24.60
2018-07-03T02:16:50.701Z,24.60
2018-07-03T02:19:18.505Z,24.60
2018-07-03T02:21:46.193Z,24.50
2018-07-03T02:24:14.009Z,24.50
2018-07-03T02:26:41.785Z,24.50
2018-07-03T02:29:09.496Z,24.50
2018-07-03T02:31:37.867Z,24.50
2018-07-03T02:34:05.567Z,24.40
2018-07-03T02:36:33.274Z,24.40
2018-07-03T02:39:00.995Z,24.40
2018-07-03T02:43:56.250Z,24.40
2018-07-03T02:46:23.967Z,24.40
2018-07-03T02:48:51.690Z,24.40
2018-07-03T02:51:19.395Z,24.40
2018-07-03T02:53:47.082Z,24.30
2018-07-03T02:56:14.779Z,24.30
2018-07-03T02:58:42.467Z,24.30
2018-07-03T03:01:10.172Z,24.30
2018-07-03T03:03:37.869Z,24.30
2018-07-03T03:06:05.630Z,24.30
2018-07-03T03:08:33.328Z,24.20
2018-07-03T03:11:01.068Z,24.20
2018-07-03T03:13:28.771Z,24.20
2018-07-03T03:15:56.457Z,24.20
2018-07-03T03:18:30.806Z,24.20
2018-07-03T03:20:58.518Z,24.10
2018-07-03T03:23:26.823Z,24.10
2018-07-03T03:25:54.836Z,24.10
2018-07-03T03:28:22.590Z,24.10
2018-07-03T03:30:50.332Z,24.10
2018-07-03T03:33:18.022Z,24.10
2018-07-03T03:35:45.708Z,24.10
2018-07-03T03:38:13.405Z,24.10
2018-07-03T03:40:47.714Z,24.00
2018-07-03T03:43:15.396Z,24.10
2018-07-03T03:45:43.100Z,24.00
2018-07-03T03:48:10.831Z,24.00
2018-07-03T03:50:38.526Z,24.00
2018-07-03T03:53:06.232Z,23.90
2018-07-03T03:58:01.500Z,23.90
2018-07-03T04:00:29.190Z,23.90
2018-07-03T04:02:56.936Z,23.90
2018-07-03T04:05:24.607Z,23.90
2018-07-03T04:07:52.324Z,23.90
2018-07-03T04:10:20.018Z,23.80
2018-07-03T04:12:47.700Z,23.80
2018-07-03T04:15:15.375Z,23.80
2018-07-03T04:17:43.092Z,23.80
2018-07-03T04:20:10.784Z,23.80
2018-07-03T04:22:38.654Z,23.80
2018-07-03T04:25:06.636Z,23.70
2018-07-03T04:27:34.324Z,23.80
2018-07-03T04:30:02.027Z,23.70
2018-07-03T04:32:29.786Z,23.70
2018-07-03T04:34:57.515Z,23.70
2018-07-03T04:37:25.204Z,23.70
2018-07-03T04:39:52.900Z,23.70
2018-07-03T04:42:20.588Z,23.70
2018-07-03T04:44:48.285Z,23.60
2018-07-03T04:47:15.990Z,23.60
2018-07-03T04:49:43.683Z,23.60
2018-07-03T04:52:11.362Z,23.60
2018-07-03T04:54:39.068Z,23.60
2018-07-03T04:57:06.820Z,23.60
2018-07-03T04:59:34.504Z,23.60
2018-07-03T05:02:09.002Z,23.60
2018-07-03T05:04:36.705Z,23.60
2018-07-03T05:07:04.525Z,23.60
2018-07-03T05:09:32.216Z,23.50
2018-07-03T05:11:59.905Z,23.50
2018-07-03T05:14:27.568Z,23.50
2018-07-03T05:16:58.106Z,23.50
2018-07-03T05:19:27.582Z,23.50
2018-07-03T05:21:55.300Z,23.50
2018-07-03T05:24:23.351Z,23.40
2018-07-03T05:26:51.160Z,23.40
2018-07-03T05:29:19.012Z,23.40
2018-07-03T05:31:46.813Z,23.40
2018-07-03T05:34:14.494Z,23.40
2018-07-03T05:36:42.167Z,23.40
2018-07-03T05:39:11.368Z,23.40
2018-07-03T05:41:39.191Z,23.40
2018-07-03T05:44:07.089Z,23.40
2018-07-03T05:46:34.807Z,23.40
2018-07-03T05:49:02.553Z,23.30
2018-07-03T05:51:30.258Z,23.30
2018-07-03T05:53:58.007Z,23.30
2018-07-03T05:56:25.698Z,23.30
2018-07-03T05:58:53.444Z,23.30
2018-07-03T06:01:21.141Z,23.30
2018-07-03T06:03:48.848Z,23.30
2018-07-03T06:06:16.593Z,23.30
2018-07-03T06:08:44.270Z,23.30
2018-07-03T06:11:11.941Z,23.30
2018-07-03T06:13:39.653Z,23.30
2018-07-03T06:16:07.374Z,23.30
2018-07-03T06:18:35.067Z,23.20
2018-07-03T06:21:03.170Z,23.20
2018-07-03T06:23:30.861Z,23.20
2018-07-03T06:25:58.561Z,23.20
2018-07-03T06:28:26.286Z,23.20
2018-07-03T06:30:53.975Z,23.20
2018-07-03T06:33:21.649Z,23.20
2018-07-03T06:35:49.372Z,23.20
2018-07-03T06:40:44.608Z,23.20
2018-07-03T06:43:12.292Z,23.20
2018-07-03T06:45:40.035Z,23.20
2018-07-03T06:48:07.768Z,23.20
2018-07-03T06:50:35.470Z,23.10
2018-07-03T06:53:03.246Z,23.10
2018-07-03T06:55:30.954Z,23.10
2018-07-03T06:57:58.734Z,23.10
2018-07-03T07:00:26.395Z,23.10
2018-07-03T07:02:54.066Z,23.10
2018-07-03T07:05:21.752Z,23.10
2018-07-03T07:07:49.436Z,23.10
2018-07-03T07:10:17.112Z,23.10
2018-07-03T07:12:44.790Z,23.10
2018-07-03T07:15:12.625Z,23.10
2018-07-03T07:17:40.367Z,23.10
2018-07-03T07:20:08.068Z,23.10
2018-07-03T07:22:35.833Z,23.10
2018-07-03T07:25:03.731Z,23.10
2018-07-03T07:27:31.434Z,23.20
2018-07-03T07:29:59.147Z,23.20
2018-07-03T07:32:26.860Z,23.10
2018-07-03T07:34:54.535Z,23.20
2018-07-03T07:37:22.358Z,23.10
2018-07-03T07:39:50.065Z,23.10
2018-07-03T07:42:17.742Z,23.10
2018-07-03T07:44:45.456Z,23.10
2018-07-03T07:47:13.149Z,23.20
2018-07-03T07:49:40.836Z,23.10
2018-07-03T07:52:08.522Z,23.10
2018-07-03T07:54:36.260Z,23.20
2018-07-03T07:57:04.086Z,23.20
2018-07-03T07:59:31.797Z,23.10
2018-07-03T08:01:59.461Z,23.10
2018-07-03T08:04:27.182Z,23.10
2018-07-03T08:06:54.873Z,23.20
2018-07-03T08:09:22.557Z,23.10
2018-07-03T08:11:50.354Z,23.10
2018-07-03T08:14:18.095Z,23.10
2018-07-03T08:16:45.813Z,23.10
2018-07-03T08:19:13.547Z,23.10
2018-07-03T08:21:41.199Z,23.10
2018-07-03T08:24:08.868Z,23.10
2018-07-03T08:26:36.656Z,23.20
2018-07-03T08:29:04.382Z,23.20
2018-07-03T08:31:32.073Z,23.20
2018-07-03T08:33:59.795Z,23.20
2018-07-03T08:36:27.480Z,23.20
2018-07-03T08:38:55.162Z,23.20
2018-07-03T08:41:23.248Z,23.20
2018-07-03T08:43:50.924Z,23.20
2018-07-03T08:46:25.314Z,23.20
2018-07-03T08:48:54.701Z,23.20
2018-07-03T08:51:22.397Z,23.20
2018-07-03T08:53:50.091Z,23.20
2018-07-03T08:56:17.813Z,23.20
2018-07-03T08:58:46.272Z,23.20
2018-07-03T09:01:13.973Z,23.20
2018-07-03T09:03:41.669Z,23.20
2018-07-03T09:06:10.134Z,23.20
2018-07-03T09:08:37.828Z,23.20
2018-07-03T09:11:05.539Z,23.20
2018-07-03T09:13:33.229Z,23.20
2018-07-03T09:16:00.949Z,23.20
2018-07-03T09:18:28.634Z,23.20
2018-07-03T09:20:56.337Z,23.20
2018-07-03T09:23:24.062Z,23.20
2018-07-03T09:25:51.764Z,23.20
2018-07-03T09:28:19.448Z,23.20
2018-07-03T09:33:14.746Z,23.20
2018-07-03T09:35:42.448Z,23.20
2018-07-03T09:38:10.120Z,23.20
2018-07-03T09:40:38.149Z,23.20
2018-07-03T09:43:05.895Z,23.20
2018-07-03T09:45:33.612Z,23.20
2018-07-03T09:50:28.900Z,23.20
2018-07-03T09:52:56.693Z,23.20
2018-07-03T09:57:52.344Z,23.30
2018-07-03T10:00:25.630Z,23.30
2018-07-03T10:02:53.358Z,23.30
2018-07-03T10:05:21.082Z,23.30
2018-07-03T10:07:48.770Z,23.30
2018-07-03T10:10:16.456Z,23.30
2018-07-03T10:12:44.172Z,23.30
2018-07-03T10:15:11.861Z,23.30
2018-07-03T10:17:39.567Z,23.30
2018-07-03T10:20:07.332Z,23.30
2018-07-03T10:25:02.640Z,23.30
2018-07-03T10:27:30.383Z,23.30
2018-07-03T10:29:58.096Z,23.30
2018-07-03T10:32:25.823Z,23.30
2018-07-03T10:34:53.529Z,23.30
2018-07-03T10:37:21.210Z,23.30
2018-07-03T10:39:48.932Z,23.30
2018-07-03T10:42:16.649Z,23.30
2018-07-03T10:44:44.344Z,23.30
2018-07-03T10:47:12.033Z,23.30
2018-07-03T10:49:39.724Z,23.30
2018-07-03T10:52:07.444Z,23.30
2018-07-03T10:54:35.120Z,23.30
2018-07-03T10:57:02.882Z,23.30
2018-07-03T10:59:30.647Z,23.30
2018-07-03T11:01:58.312Z,23.30
2018-07-03T11:04:26.012Z,23.30
2018-07-03T11:06:53.722Z,23.40
2018-07-03T11:09:21.432Z,23.40
2018-07-03T11:11:49.142Z,23.40
2018-07-03T11:14:16.850Z,23.40
2018-07-03T11:16:44.534Z,23.40
2018-07-03T11:19:12.235Z,23.50
2018-07-03T11:21:39.932Z,23.50
2018-07-03T11:24:07.721Z,23.50
2018-07-03T11:26:35.449Z,23.50
2018-07-03T11:29:03.189Z,23.40
2018-07-03T11:31:30.876Z,23.50
2018-07-03T11:33:58.565Z,23.40
2018-07-03T11:36:26.282Z,23.50
2018-07-03T11:38:53.973Z,23.40
2018-07-03T11:41:21.673Z,23.40
2018-07-03T11:43:49.368Z,23.40
2018-07-03T11:46:17.196Z,23.50
2018-07-03T11:48:44.929Z,23.50
2018-07-03T11:51:12.623Z,23.50
2018-07-03T11:53:40.702Z,23.50
2018-07-03T11:56:08.398Z,23.50
2018-07-03T11:58:36.107Z,23.50
2018-07-03T12:01:03.858Z,23.50
2018-07-03T12:03:31.655Z,23.50
2018-07-03T12:05:59.412Z,23.50
2018-07-03T12:08:27.096Z,23.50
2018-07-03T12:10:54.827Z,23.50
2018-07-03T12:13:22.514Z,23.50
2018-07-03T12:15:50.211Z,23.50
2018-07-03T12:18:23.431Z,23.60
2018-07-03T12:20:51.221Z,23.60
2018-07-03T12:23:18.914Z,23.60
2018-07-03T12:25:46.631Z,23.60
2018-07-03T12:28:14.367Z,23.60
2018-07-03T12:30:42.072Z,23.60
2018-07-03T12:33:09.761Z,23.70
2018-07-03T12:35:37.497Z,23.70
2018-07-03T12:38:05.266Z,23.70
2018-07-03T12:40:32.975Z,23.70
2018-07-03T12:43:00.670Z,23.70
2018-07-03T12:45:28.359Z,23.70
2018-07-03T12:47:56.084Z,23.70
2018-07-03T12:50:23.817Z,23.70
2018-07-03T12:52:51.506Z,23.70
2018-07-03T12:55:19.333Z,23.70
2018-07-03T12:57:46.993Z,23.70
2018-07-03T13:00:14.874Z,23.70
2018-07-03T13:02:42.606Z,23.70
2018-07-03T13:05:10.331Z,23.70
2018-07-03T13:07:38.020Z,23.70
2018-07-03T13:10:05.758Z,23.70
2018-07-03T13:12:33.460Z,23.70
2018-07-03T13:15:01.167Z,23.70
2018-07-03T13:17:28.933Z,23.80
2018-07-03T13:19:56.654Z,23.80
2018-07-03T13:22:24.370Z,23.80
2018-07-03T13:24:52.088Z,23.80
2018-07-03T13:27:19.792Z,23.80
2018-07-03T13:29:47.572Z,23.80
2018-07-03T13:32:15.316Z,23.90
2018-07-03T13:34:43.012Z,23.90
2018-07-03T13:37:10.784Z,23.90
2018-07-03T13:42:06.063Z,23.90
2018-07-03T13:44:33.788Z,24.00
2018-07-03T13:47:01.494Z,24.00
2018-07-03T13:49:29.198Z,24.00
2018-07-03T13:51:56.889Z,24.00
2018-07-03T13:54:24.594Z,24.00
2018-07-03T13:56:52.354Z,24.10
2018-07-03T13:59:20.062Z,24.10
2018-07-03T14:01:47.744Z,24.10
2018-07-03T14:04:15.434Z,24.10
2018-07-03T14:06:43.137Z,24.10
2018-07-03T14:09:10.831Z,24.10
2018-07-03T14:11:38.549Z,24.10
2018-07-03T14:14:06.814Z,24.10
2018-07-03T14:16:34.516Z,24.10
2018-07-03T14:19:02.293Z,24.10
2018-07-03T14:21:30.015Z,24.10
2018-07-03T14:26:25.325Z,24.20
2018-07-03T14:28:53.004Z,24.20
2018-07-03T14:33:48.289Z,24.20
2018-07-03T14:36:16.053Z,24.20
2018-07-03T14:38:43.778Z,24.20
2018-07-03T14:41:11.520Z,24.20
2018-07-03T14:43:39.346Z,24.20
2018-07-03T14:46:07.438Z,24.30
2018-07-03T14:48:35.250Z,24.30
2018-07-03T14:51:03.002Z,24.40
2018-07-03T14:53:30.693Z,24.40
2018-07-03T14:55:58.393Z,24.40
2018-07-03T14:58:26.118Z,24.40
2018-07-03T15:00:53.811Z,24.50
2018-07-03T15:03:21.555Z,24.50
2018-07-03T15:05:49.248Z,24.50
2018-07-03T15:08:16.956Z,24.50
2018-07-03T15:10:44.675Z,24.50
2018-07-03T15:13:12.344Z,24.60
2018-07-03T15:15:40.046Z,24.60
2018-07-03T15:18:11.477Z,24.60
2018-07-03T15:20:39.256Z,24.60
2018-07-03T15:23:07.018Z,24.60
2018-07-03T15:25:34.778Z,24.60
2018-07-03T15:28:02.523Z,24.60
2018-07-03T15:30:30.197Z,24.60
2018-07-03T15:35:25.503Z,24.60
2018-07-03T15:37:53.224Z,24.70
2018-07-03T15:40:21.135Z,24.70
2018-07-03T15:42:48.840Z,24.70
2018-07-03T15:45:16.566Z,24.70
2018-07-03T15:47:44.272Z,24.70
2018-07-03T15:50:12.933Z,24.70
2018-07-03T15:52:40.630Z,24.70
2018-07-03T15:55:09.056Z,24.80
2018-07-03T15:57:36.777Z,24.80
2018-07-03T16:00:06.377Z,24.80
2018-07-03T16:02:34.102Z,24.80
2018-07-03T16:05:17.312Z,24.80
2018-07-03T16:07:50.660Z,24.80
2018-07-03T16:10:18.353Z,24.80
2018-07-03T16:12:46.050Z,24.90
2018-07-03T16:15:13.760Z,24.90
2018-07-03T16:17:41.494Z,24.90
2018-07-03T16:20:14.744Z,24.90
2018-07-03T16:22:42.460Z,24.90
2018-07-03T16:27:37.772Z,25.00
2018-07-03T16:30:07.860Z,25.00
2018-07-03T16:32:35.816Z,25.00
2018-07-03T16:35:03.685Z,25.00
2018-07-03T16:37:31.416Z,25.00
2018-07-03T16:39:59.161Z,25.00
2018-07-03T16:42:26.875Z,25.00
2018-07-03T16:44:55.682Z,25.00
2018-07-03T16:47:23.384Z,25.00
2018-07-03T16:49:51.135Z,25.00
2018-07-03T16:52:18.860Z,25.00
2018-07-03T16:57:14.338Z,25.10
2018-07-03T16:59:42.074Z,25.10
2018-07-03T17:02:09.761Z,25.10
2018-07-03T17:04:37.456Z,25.20
2018-07-03T17:07:05.255Z,25.20
2018-07-03T17:09:32.947Z,25.20
2018-07-03T17:12:00.659Z,25.20
2018-07-03T17:14:28.355Z,25.20
2018-07-03T17:16:56.075Z,25.20
2018-07-03T17:19:29.318Z,25.30
2018-07-03T17:21:57.033Z,25.30
2018-07-03T17:24:24.757Z,25.30
2018-07-03T17:26:52.628Z,25.30
2018-07-03T17:29:20.324Z,25.40
2018-07-03T17:31:48.042Z,25.40
2018-07-03T17:36:43.314Z,25.40
2018-07-03T17:39:13.069Z,25.40
2018-07-03T17:41:52.736Z,25.40
2018-07-03T17:44:33.452Z,25.50
2018-07-03T17:47:01.174Z,25.50
2018-07-03T17:49:28.910Z,25.50
2018-07-03T17:51:56.629Z,25.50
2018-07-03T17:54:24.385Z,25.50
2018-07-03T17:56:52.082Z,25.50
2018-07-03T17:59:19.828Z,25.50
2018-07-03T18:01:47.501Z,25.50
2018-07-03T18:04:15.226Z,25.50
2018-07-03T18:06:42.960Z,25.60
2018-07-03T18:09:11.862Z,25.60
2018-07-03T18:11:39.577Z,25.60
2018-07-03T18:14:07.412Z,25.60
2018-07-03T18:16:35.111Z,25.60
2018-07-03T18:19:08.252Z,25.60
2018-07-03T18:21:36.092Z,25.60
2018-07-03T18:24:03.944Z,25.60
2018-07-03T18:26:31.710Z,25.60
2018-07-03T18:28:59.406Z,25.60
2018-07-03T18:31:27.212Z,25.60
2018-07-03T18:33:54.902Z,25.70
2018-07-03T18:36:22.630Z,25.70
2018-07-03T18:38:50.298Z,25.70
2018-07-03T18:41:17.989Z,25.70
2018-07-03T18:43:45.992Z,25.70
2018-07-03T18:46:13.788Z,25.70
2018-07-03T18:48:41.469Z,25.70
2018-07-03T18:51:09.246Z,25.70
2018-07-03T18:53:36.955Z,25.70
2018-07-03T19:01:00.163Z,25.80
2018-07-03T19:03:27.972Z,25.80
2018-07-03T19:05:55.639Z,25.80
2018-07-03T19:08:23.326Z,25.80
2018-07-03T19:13:18.692Z,25.80
2018-07-03T19:15:46.395Z,25.80
2018-07-03T19:18:14.119Z,25.80
2018-07-03T19:20:41.812Z,25.80
2018-07-03T19:23:09.500Z,25.80
2018-07-03T19:25:37.237Z,25.80
2018-07-03T19:28:05.073Z,25.80
2018-07-03T19:30:32.785Z,25.80
2018-07-03T19:33:00.514Z,25.80
2018-07-03T19:35:28.213Z,25.80
2018-07-03T19:37:55.945Z,25.90
2018-07-03T19:40:23.689Z,25.80
2018-07-03T19:43:33.628Z,25.90
2018-07-03T19:46:01.829Z,25.80
2018-07-03T19:48:29.669Z,25.90
2018-07-03T19:50:57.497Z,25.90
2018-07-03T19:53:25.246Z,25.90
2018-07-03T19:58:22.042Z,25.80
2018-07-03T20:00:50.729Z,25.90
2018-07-03T20:03:18.468Z,25.90
2018-07-03T20:05:46.254Z,25.90
2018-07-03T20:08:14.073Z,25.90
2018-07-03T20:10:41.872Z,25.90
2018-07-03T20:13:11.492Z,25.90
2018-07-03T20:15:39.300Z,25.90
2018-07-03T20:18:08.077Z,25.90
2018-07-03T20:20:35.766Z,25.90
2018-07-03T20:23:03.566Z,25.90
2018-07-03T20:25:31.294Z,25.90
2018-07-03T20:27:59.653Z,25.90
2018-07-03T20:30:27.613Z,25.90
2018-07-03T20:32:55.616Z,25.90
2018-07-03T20:35:23.614Z,25.90
2018-07-03T20:37:57.414Z,25.90
2018-07-03T20:40:25.773Z,25.90
2018-07-03T20:42:56.015Z,25.90
2018-07-03T20:45:24.064Z,26.00
2018-07-03T20:47:52.087Z,25.90
2018-07-03T20:50:20.153Z,25.90
2018-07-03T20:52:48.243Z,25.90
2018-07-03T20:55:16.585Z,26.00
2018-07-03T20:57:44.980Z,25.90
2018-07-03T21:00:12.745Z,25.90
2018-07-03T21:02:40.460Z,25.90
2018-07-03T21:05:08.221Z,25.90
2018-07-03T21:07:35.920Z,25.90
2018-07-03T21:10:03.829Z,26.00
2018-07-03T21:12:31.638Z,25.90
2018-07-03T21:14:59.349Z,26.00
2018-07-03T21:17:27.056Z,25.90
2018-07-03T21:19:54.765Z,26.00
2018-07-03T21:22:22.455Z,25.90
2018-07-03T21:24:50.189Z,26.00
2018-07-03T21:27:17.916Z,26.00
2018-07-03T21:29:45.666Z,25.90
2018-07-03T21:32:13.385Z,25.90
2018-07-03T21:34:41.095Z,25.90
2018-07-03T21:37:08.780Z,25.90
2018-07-03T21:39:36.496Z,25.90
2018-07-03T21:42:04.192Z,25.90
2018-07-03T21:44:31.920Z,25.90
2018-07-03T21:46:59.639Z,25.90
2018-07-03T21:49:27.332Z,25.90
2018-07-03T21:51:55.044Z,25.90
2018-07-03T21:54:22.742Z,25.90
2018-07-03T21:56:50.505Z,26.00
2018-07-03T21:59:18.181Z,25.90
2018-07-03T22:01:45.887Z,25.90
2018-07-03T22:04:13.600Z,25.90
2018-07-03T22:06:41.308Z,25.90
2018-07-03T22:09:11.189Z,25.90
2018-07-03T22:11:38.899Z,25.90
2018-07-03T22:14:06.588Z,25.90
2018-07-03T22:16:34.282Z,25.90
2018-07-03T22:19:01.996Z,25.90
2018-07-03T22:21:29.721Z,25.90
2018-07-03T22:23:57.445Z,25.90
2018-07-03T22:26:25.145Z,25.90
2018-07-03T22:28:53.135Z,25.90
2018-07-03T22:31:20.828Z,25.90
2018-07-03T22:33:48.522Z,25.90
2018-07-03T22:36:16.247Z,25.90
2018-07-03T22:38:44.005Z,25.90
2018-07-03T22:41:11.650Z,25.90
2018-07-03T22:43:39.406Z,25.80
2018-07-03T22:46:07.089Z,25.80
2018-07-03T22:48:34.765Z,25.80
2018-07-03T22:51:02.471Z,25.80
2018-07-03T22:53:30.175Z,25.80
2018-07-03T22:55:57.867Z,25.80
2018-07-03T22:58:25.612Z,25.80
2018-07-03T23:00:53.290Z,25.80
2018-07-03T23:03:20.997Z,25.80
2018-07-03T23:05:48.668Z,25.80
2018-07-03T23:08:16.359Z,25.80
2018-07-03T23:10:44.045Z,25.80
2018-07-03T23:13:11.763Z,25.80
2018-07-03T23:15:39.461Z,25.80
2018-07-03T23:18:07.194Z,25.80
2018-07-03T23:20:34.871Z,25.70
2018-07-03T23:23:02.689Z,25.80
2018-07-03T23:25:30.410Z,25.70
2018-07-03T23:27:58.144Z,25.80
2018-07-03T23:32:53.413Z,25.70
2018-07-03T23:35:21.149Z,25.70
2018-07-03T23:37:48.849Z,25.80
2018-07-03T23:40:16.529Z,25.70
2018-07-03T23:42:44.213Z,25.70
2018-07-03T23:45:11.893Z,25.70
2018-07-03T23:47:50.926Z,25.70
2018-07-03T23:50:29.718Z,25.70
2018-07-03T23:53:08.500Z,25.70
2018-07-03T23:55:47.493Z,25.60
2018-07-03T23:58:26.507Z,25.60
